createdAt,value
2019-03-23T00:00:41.762Z,70.56
2019-03-23T00:03:13.980Z,69.84
2019-03-23T00:05:46.334Z,70.01
2019-03-23T00:08:18.640Z,69.75
2019-03-23T00:10:50.786Z,69.79
2019-03-23T00:13:23.101Z,70.21
2019-03-23T00:15:55.419Z,70.34
2019-03-23T00:18:27.664Z,70.16
2019-03-23T00:20:59.804Z,69.76
2019-03-23T00:23:32.225Z,70.20
2019-03-23T00:26:04.979Z,70.21
2019-03-23T00:28:37.132Z,69.63
2019-03-23T00:31:09.354Z,69.94
2019-03-23T00:33:42.019Z,69.94
2019-03-23T00:36:14.516Z,69.20
2019-03-23T00:38:46.654Z,68.88
2019-03-23T00:41:18.860Z,70.04
2019-03-23T00:43:51.014Z,70.07
2019-03-23T00:46:23.186Z,69.97
2019-03-23T00:48:55.347Z,70.43
2019-03-23T00:51:27.500Z,70.62
2019-03-23T00:53:59.678Z,69.60
2019-03-23T00:56:31.838Z,70.47
2019-03-23T00:59:03.967Z,70.70
2019-03-23T01:01:36.188Z,70.48
2019-03-23T01:04:08.596Z,70.53
2019-03-23T01:06:51.593Z,71.35
2019-03-23T01:09:14.693Z,70.07
2019-03-23T01:11:46.900Z,71.10
2019-03-23T01:14:19.145Z,70.35
2019-03-23T01:16:51.355Z,70.73
2019-03-23T01:19:23.490Z,70.44
2019-03-23T01:21:55.696Z,71.15
2019-03-23T01:24:27.919Z,70.51
2019-03-23T01:27:00.126Z,70.73
2019-03-23T01:29:32.388Z,70.53
2019-03-23T01:32:04.604Z,70.85
2019-03-23T01:34:36.765Z,71.64
2019-03-23T01:37:09.071Z,71.85
2019-03-23T01:39:41.547Z,72.05
2019-03-23T01:42:13.747Z,72.68
2019-03-23T01:44:45.973Z,73.03
2019-03-23T01:47:18.187Z,72.90
2019-03-23T01:49:50.327Z,72.77
2019-03-23T01:52:22.460Z,72.57
2019-03-23T01:54:54.595Z,73.10
2019-03-23T01:57:26.741Z,72.83
2019-03-23T01:59:58.983Z,72.00
2019-03-23T02:02:31.201Z,71.55
2019-03-23T02:05:03.346Z,70.75
2019-03-23T02:07:35.475Z,70.56
2019-03-23T02:10:08.171Z,71.45
2019-03-23T02:12:40.882Z,71.49
2019-03-23T02:15:14.114Z,70.66
2019-03-23T02:17:46.246Z,71.14
2019-03-23T02:20:18.541Z,71.29
2019-03-23T02:22:50.748Z,71.27
2019-03-23T02:25:22.883Z,71.48
2019-03-23T02:27:55.026Z,72.28
2019-03-23T02:30:27.252Z,71.77
2019-03-23T02:32:59.457Z,71.57
2019-03-23T02:35:31.587Z,71.11
2019-03-23T02:38:03.731Z,71.52
2019-03-23T02:40:35.879Z,71.88
2019-03-23T02:43:08.275Z,71.42
2019-03-23T02:45:40.883Z,71.16
2019-03-23T02:48:13.028Z,70.96
2019-03-23T02:50:45.212Z,70.84
2019-03-23T02:53:17.346Z,70.37
2019-03-23T02:55:49.478Z,70.81
2019-03-23T02:58:21.605Z,70.93
2019-03-23T03:00:54.839Z,70.98
2019-03-23T03:03:26.988Z,71.02
2019-03-23T03:05:59.121Z,71.16
2019-03-23T03:08:31.330Z,71.32
2019-03-23T03:11:03.474Z,71.40
2019-03-23T03:13:35.668Z,71.53
2019-03-23T03:16:07.884Z,71.39
2019-03-23T03:18:40.104Z,71.30
2019-03-23T03:21:14.057Z,71.78
2019-03-23T03:23:46.204Z,70.85
2019-03-23T03:26:18.400Z,70.55
2019-03-23T03:28:50.548Z,70.38
2019-03-23T03:31:22.706Z,71.14
2019-03-23T03:33:54.948Z,71.35
2019-03-23T03:36:29.967Z,71.08
2019-03-23T03:39:00.989Z,70.87
2019-03-23T03:41:34.702Z,71.05
2019-03-23T03:44:06.848Z,71.20
2019-03-23T03:46:39.092Z,71.38
2019-03-23T03:49:12.943Z,70.60
2019-03-23T03:51:45.338Z,70.57
2019-03-23T03:54:17.495Z,71.39
2019-03-23T03:56:49.751Z,71.30
2019-03-23T03:59:21.886Z,71.66
2019-03-23T04:01:54.025Z,71.21
2019-03-23T04:04:26.217Z,71.93
2019-03-23T04:06:58.360Z,70.75
2019-03-23T04:09:30.506Z,71.26
2019-03-23T04:12:02.721Z,71.13
2019-03-23T04:14:34.959Z,71.37
2019-03-23T04:17:07.175Z,71.27
2019-03-23T04:19:39.394Z,71.25
2019-03-23T04:22:12.057Z,71.31
2019-03-23T04:24:44.541Z,71.60
2019-03-23T04:27:16.796Z,71.62
2019-03-23T04:29:48.942Z,71.62
2019-03-23T04:32:21.204Z,71.28
2019-03-23T04:34:53.485Z,71.14
2019-03-23T04:37:25.946Z,71.58
2019-03-23T04:39:58.249Z,71.71
2019-03-23T04:42:30.384Z,71.73
2019-03-23T04:45:02.689Z,71.80
2019-03-23T04:47:34.993Z,72.07
2019-03-23T04:50:07.893Z,71.75
2019-03-23T04:52:40.057Z,71.75
2019-03-23T04:55:12.355Z,72.23
2019-03-23T04:57:44.559Z,72.49
2019-03-23T05:00:16.895Z,71.41
2019-03-23T05:02:49.136Z,71.56
2019-03-23T05:05:21.272Z,71.50
2019-03-23T05:07:53.474Z,71.41
2019-03-23T05:10:25.791Z,71.58
2019-03-23T05:12:57.928Z,71.51
2019-03-23T05:15:30.069Z,71.48
2019-03-23T05:18:02.480Z,72.05
2019-03-23T05:20:34.613Z,72.42
2019-03-23T05:23:06.862Z,72.67
2019-03-23T05:25:39.111Z,72.00
2019-03-23T05:28:11.533Z,72.24
2019-03-23T05:30:43.693Z,72.58
2019-03-23T05:33:15.829Z,72.48
2019-03-23T05:35:47.974Z,71.89
2019-03-23T05:38:20.131Z,72.00
2019-03-23T05:40:52.375Z,72.05
2019-03-23T05:43:24.689Z,72.96
2019-03-23T05:45:57.442Z,73.43
2019-03-23T05:48:29.583Z,73.60
2019-03-23T05:51:01.812Z,73.43
2019-03-23T05:53:34.036Z,73.93
2019-03-23T05:56:06.171Z,74.38
2019-03-23T05:58:38.309Z,74.56
2019-03-23T06:01:10.987Z,74.86
2019-03-23T06:03:43.166Z,74.86
2019-03-23T06:06:15.601Z,74.52
2019-03-23T06:08:55.057Z,74.85
2019-03-23T06:11:21.693Z,74.73
2019-03-23T06:13:53.907Z,75.82
2019-03-23T06:16:26.061Z,76.43
2019-03-23T06:18:58.235Z,76.81
2019-03-23T06:21:30.366Z,78.02
2019-03-23T06:24:02.575Z,78.42
2019-03-23T06:26:34.789Z,78.92
2019-03-23T06:29:06.944Z,78.94
2019-03-23T06:31:39.123Z,79.47
2019-03-23T06:34:11.614Z,79.53
2019-03-23T06:36:43.754Z,79.19
2019-03-23T06:39:15.898Z,79.17
2019-03-23T06:41:48.103Z,79.03
2019-03-23T06:44:20.328Z,78.80
2019-03-23T06:46:53.562Z,78.82
2019-03-23T06:49:26.684Z,78.32
2019-03-23T06:51:58.827Z,78.04
2019-03-23T06:54:30.964Z,77.89
2019-03-23T06:57:03.132Z,77.71
2019-03-23T06:59:35.312Z,77.62
2019-03-23T07:02:07.558Z,77.79
2019-03-23T07:04:39.699Z,77.45
2019-03-23T07:07:12.546Z,77.61
2019-03-23T07:09:45.009Z,76.99
2019-03-23T07:12:17.149Z,76.97
2019-03-23T07:14:49.319Z,76.65
2019-03-23T07:17:21.457Z,76.68
2019-03-23T07:19:53.598Z,76.38
2019-03-23T07:22:25.745Z,75.96
2019-03-23T07:24:57.875Z,75.97
2019-03-23T07:27:30.022Z,75.76
2019-03-23T07:30:03.817Z,75.42
2019-03-23T07:32:36.289Z,75.31
2019-03-23T07:35:09.149Z,74.87
2019-03-23T07:37:43.791Z,74.60
2019-03-23T07:40:16.156Z,74.17
2019-03-23T07:42:49.960Z,74.29
2019-03-23T07:45:22.970Z,73.93
2019-03-23T07:47:55.225Z,73.63
2019-03-23T07:50:27.375Z,72.90
2019-03-23T07:52:59.522Z,72.76
2019-03-23T07:55:31.687Z,72.60
2019-03-23T07:58:03.840Z,72.13
2019-03-23T08:00:36.071Z,71.38
2019-03-23T08:03:08.470Z,71.02
2019-03-23T08:05:41.790Z,70.48
2019-03-23T08:08:15.655Z,70.18
2019-03-23T08:10:49.322Z,69.89
2019-03-23T08:13:23.061Z,69.56
2019-03-23T08:15:56.982Z,69.20
2019-03-23T08:18:30.693Z,68.79
2019-03-23T08:21:03.878Z,68.69
2019-03-23T08:23:37.387Z,68.37
2019-03-23T08:26:12.576Z,68.17
2019-03-23T08:28:47.048Z,68.10
2019-03-23T08:31:19.781Z,68.04
2019-03-23T08:33:52.234Z,67.53
2019-03-23T08:36:24.440Z,66.83
2019-03-23T08:38:57.132Z,66.86
2019-03-23T08:41:29.279Z,66.38
2019-03-23T08:44:02.129Z,66.60
2019-03-23T08:46:35.158Z,65.37
2019-03-23T08:49:07.385Z,65.11
2019-03-23T08:51:40.783Z,64.80
2019-03-23T08:54:13.432Z,65.04
2019-03-23T08:56:45.603Z,63.72
2019-03-23T08:59:18.450Z,64.45
2019-03-23T09:01:51.221Z,63.19
2019-03-23T09:04:23.490Z,63.35
2019-03-23T09:06:55.655Z,62.98
2019-03-23T09:09:27.888Z,63.24
2019-03-23T09:12:00.138Z,62.52
2019-03-23T09:14:32.354Z,62.29
2019-03-23T09:17:05.648Z,60.87
2019-03-23T09:19:38.977Z,60.48
2019-03-23T09:22:11.439Z,60.43
2019-03-23T09:24:47.734Z,59.97
2019-03-23T09:27:22.093Z,59.33
2019-03-23T09:29:56.887Z,58.61
2019-03-23T09:32:31.328Z,58.61
2019-03-23T09:35:04.835Z,59.33
2019-03-23T09:37:38.478Z,57.78
2019-03-23T09:40:11.668Z,57.38
2019-03-23T09:42:44.668Z,56.71
2019-03-23T09:45:17.428Z,56.71
2019-03-23T09:47:50.406Z,56.40
2019-03-23T09:50:22.738Z,56.45
2019-03-23T09:52:55.001Z,55.62
2019-03-23T09:55:28.800Z,54.56
2019-03-23T09:58:02.134Z,54.69
2019-03-23T10:00:34.342Z,52.69
2019-03-23T10:03:06.561Z,53.61
2019-03-23T10:05:38.786Z,53.60
2019-03-23T10:08:11.405Z,53.08
2019-03-23T10:10:43.636Z,53.31
2019-03-23T10:13:15.849Z,52.50
2019-03-23T10:15:48.074Z,51.80
2019-03-23T10:18:20.219Z,50.89
2019-03-23T10:20:52.440Z,51.19
2019-03-23T10:23:24.582Z,50.70
2019-03-23T10:25:56.787Z,50.53
2019-03-23T10:28:29.008Z,50.43
2019-03-23T10:31:01.179Z,50.67
2019-03-23T10:33:33.401Z,50.34
2019-03-23T10:36:05.575Z,49.62
2019-03-23T10:38:39.054Z,48.74
2019-03-23T10:41:12.394Z,48.61
2019-03-23T10:43:45.819Z,48.09
2019-03-23T10:46:17.986Z,47.53
2019-03-23T10:48:50.190Z,46.79
2019-03-23T10:51:22.352Z,47.11
2019-03-23T10:53:55.389Z,47.32
2019-03-23T10:56:27.724Z,46.70
2019-03-23T10:58:59.964Z,47.01
2019-03-23T11:01:32.174Z,46.51
2019-03-23T11:04:04.423Z,45.53
2019-03-23T11:06:36.779Z,45.96
2019-03-23T11:09:09.083Z,45.47
2019-03-23T11:11:41.687Z,44.97
2019-03-23T11:14:14.702Z,45.17
2019-03-23T11:16:48.697Z,44.91
2019-03-23T11:19:20.866Z,44.87
2019-03-23T11:21:53.085Z,45.91
2019-03-23T11:24:25.263Z,45.60
2019-03-23T11:26:57.486Z,44.47
2019-03-23T11:29:29.714Z,43.80
2019-03-23T11:32:01.983Z,43.64
2019-03-23T11:34:34.204Z,43.82
2019-03-23T11:37:06.498Z,43.82
2019-03-23T11:39:38.928Z,43.19
2019-03-23T11:42:11.162Z,42.48
2019-03-23T11:44:44.453Z,42.70
2019-03-23T11:47:16.627Z,42.48
2019-03-23T11:49:51.094Z,42.85
2019-03-23T11:52:24.373Z,42.08
2019-03-23T11:54:56.552Z,41.68
2019-03-23T11:57:29.077Z,42.29
2019-03-23T12:00:01.391Z,42.11
2019-03-23T12:02:33.877Z,41.65
2019-03-23T12:05:07.644Z,41.60
2019-03-23T12:07:43.163Z,42.19
2019-03-23T12:10:15.781Z,41.70
2019-03-23T12:12:47.967Z,42.09
2019-03-23T12:15:20.160Z,42.36
2019-03-23T12:17:52.693Z,43.34
2019-03-23T12:20:24.801Z,43.90
2019-03-23T12:22:56.978Z,43.36
2019-03-23T12:25:29.178Z,43.82
2019-03-23T12:28:01.411Z,44.20
2019-03-23T12:30:34.948Z,43.90
2019-03-23T12:33:07.895Z,44.10
2019-03-23T12:35:45.370Z,43.96
2019-03-23T12:38:19.067Z,43.44
2019-03-23T12:40:51.349Z,43.79
2019-03-23T12:43:25.098Z,43.72
2019-03-23T12:45:58.930Z,43.91
2019-03-23T12:48:31.577Z,44.06
2019-03-23T12:51:03.931Z,44.02
2019-03-23T12:53:36.079Z,43.87
2019-03-23T12:56:08.300Z,43.75
2019-03-23T12:58:40.542Z,43.35
2019-03-23T13:01:12.971Z,44.23
2019-03-23T13:03:45.161Z,43.97
2019-03-23T13:06:17.299Z,43.62
2019-03-23T13:08:49.552Z,43.64
2019-03-23T13:11:24.635Z,43.68
2019-03-23T13:13:57.299Z,43.86
2019-03-23T13:16:29.873Z,41.41
2019-03-23T13:19:02.502Z,41.19
2019-03-23T13:21:34.863Z,41.72
2019-03-23T13:24:07.480Z,40.83
2019-03-23T13:26:40.145Z,41.13
2019-03-23T13:29:13.442Z,41.35
2019-03-23T13:31:46.094Z,41.48
2019-03-23T13:34:18.584Z,41.77
2019-03-23T13:36:55.457Z,41.55
2019-03-23T13:39:28.335Z,41.40
2019-03-23T13:42:03.096Z,41.86
2019-03-23T13:44:36.284Z,41.63
2019-03-23T13:47:11.725Z,41.41
2019-03-23T13:49:46.027Z,42.19
2019-03-23T13:52:23.089Z,41.85
2019-03-23T13:54:59.892Z,41.78
2019-03-23T13:57:34.046Z,41.88
2019-03-23T14:00:07.617Z,42.08
2019-03-23T14:02:40.474Z,42.17
2019-03-23T14:05:16.309Z,41.32
2019-03-23T14:07:47.716Z,41.27
2019-03-23T14:10:21.381Z,41.68
2019-03-23T14:12:54.934Z,42.41
2019-03-23T14:15:28.740Z,41.64
2019-03-23T14:18:01.526Z,41.65
2019-03-23T14:20:34.355Z,41.67
2019-03-23T14:23:07.025Z,40.80
2019-03-23T14:25:39.430Z,40.21
2019-03-23T14:28:12.416Z,39.94
2019-03-23T14:30:45.174Z,40.32
2019-03-23T14:33:17.991Z,39.86
2019-03-23T14:35:50.854Z,39.45
2019-03-23T14:38:23.177Z,39.41
2019-03-23T14:40:55.496Z,39.14
2019-03-23T14:43:27.843Z,39.84
2019-03-23T14:46:02.883Z,39.17
2019-03-23T14:48:35.221Z,39.07
2019-03-23T14:51:07.768Z,39.09
2019-03-23T14:53:40.689Z,38.97
2019-03-23T14:56:13.298Z,39.51
2019-03-23T14:58:46.018Z,40.16
2019-03-23T15:01:18.261Z,39.64
2019-03-23T15:03:50.589Z,38.77
2019-03-23T15:06:23.281Z,38.67
2019-03-23T15:08:55.940Z,39.50
2019-03-23T15:11:29.662Z,39.04
2019-03-23T15:14:01.978Z,38.60
2019-03-23T15:16:34.141Z,38.17
2019-03-23T15:19:06.597Z,38.18
2019-03-23T15:21:38.918Z,37.53
2019-03-23T15:24:11.324Z,38.35
2019-03-23T15:26:43.769Z,38.23
2019-03-23T15:29:16.225Z,38.64
2019-03-23T15:31:50.023Z,38.21
2019-03-23T15:34:22.825Z,38.09
2019-03-23T15:36:55.171Z,38.59
2019-03-23T15:39:27.495Z,38.78
2019-03-23T15:42:00.211Z,39.37
2019-03-23T15:44:32.732Z,39.91
2019-03-23T15:47:05.311Z,40.10
2019-03-23T15:49:38.049Z,40.49
2019-03-23T15:52:11.573Z,41.44
2019-03-23T15:54:44.921Z,41.07
2019-03-23T15:57:17.517Z,41.21
2019-03-23T15:59:51.310Z,41.40
2019-03-23T16:02:24.210Z,40.00
2019-03-23T16:04:56.695Z,39.54
2019-03-23T16:07:29.830Z,39.63
2019-03-23T16:10:02.241Z,38.87
2019-03-23T16:12:37.483Z,38.55
2019-03-23T16:15:10.050Z,38.74
2019-03-23T16:17:42.377Z,39.10
2019-03-23T16:20:14.535Z,38.68
2019-03-23T16:22:46.754Z,38.66
2019-03-23T16:25:18.901Z,39.63
2019-03-23T16:27:51.116Z,39.83
2019-03-23T16:30:33.216Z,40.20
2019-03-23T16:33:05.499Z,40.35
2019-03-23T16:35:37.726Z,41.28
2019-03-23T16:38:10.587Z,42.72
2019-03-23T16:40:43.038Z,44.85
2019-03-23T16:43:15.256Z,46.49
2019-03-23T16:45:48.944Z,49.42
2019-03-23T16:48:21.210Z,51.66
2019-03-23T16:50:53.360Z,52.92
2019-03-23T16:53:26.319Z,54.02
2019-03-23T16:56:02.209Z,54.54
2019-03-23T16:58:35.737Z,55.34
2019-03-23T17:01:10.542Z,55.52
2019-03-23T17:03:43.853Z,55.17
2019-03-23T17:06:17.742Z,55.14
2019-03-23T17:08:50.834Z,55.50
2019-03-23T17:11:23.074Z,55.71
2019-03-23T17:13:55.256Z,56.46
2019-03-23T17:16:27.826Z,56.74
2019-03-23T17:19:00.541Z,57.03
2019-03-23T17:21:35.225Z,57.59
2019-03-23T17:24:08.086Z,57.52
2019-03-23T17:26:41.653Z,53.90
2019-03-23T17:29:16.856Z,52.60
2019-03-23T17:31:49.713Z,52.60
2019-03-23T17:34:22.265Z,53.53
2019-03-23T17:36:55.761Z,52.98
2019-03-23T17:39:28.313Z,53.79
2019-03-23T17:42:03.606Z,54.56
2019-03-23T17:44:36.133Z,55.47
2019-03-23T17:47:08.283Z,57.84
2019-03-23T17:49:40.964Z,57.84
2019-03-23T17:52:13.686Z,60.01
2019-03-23T17:54:46.151Z,60.01
2019-03-23T17:57:19.377Z,61.02
2019-03-23T17:59:51.532Z,61.63
2019-03-23T18:02:23.771Z,61.88
2019-03-23T18:04:56.344Z,62.40
2019-03-23T18:07:29.789Z,62.78
2019-03-23T18:10:05.814Z,62.44
2019-03-23T18:12:39.935Z,62.26
2019-03-23T18:15:14.742Z,62.14
2019-03-23T18:17:51.133Z,62.39
2019-03-23T18:20:24.718Z,62.31
2019-03-23T18:23:01.598Z,62.27
2019-03-23T18:25:35.443Z,62.22
2019-03-23T18:28:08.075Z,62.16
2019-03-23T18:30:42.171Z,62.34
2019-03-23T18:33:14.398Z,62.39
2019-03-23T18:35:47.623Z,62.11
2019-03-23T18:38:20.565Z,62.13
2019-03-23T18:40:54.566Z,61.86
2019-03-23T18:43:28.070Z,61.86
2019-03-23T18:46:00.831Z,61.67
2019-03-23T18:48:33.898Z,61.39
2019-03-23T18:51:07.148Z,61.41
2019-03-23T18:53:40.118Z,61.06
2019-03-23T18:56:14.930Z,60.61
2019-03-23T18:58:47.228Z,60.41
2019-03-23T19:01:20.093Z,60.24
2019-03-23T19:03:52.432Z,60.33
2019-03-23T19:06:24.866Z,61.04
2019-03-23T19:08:57.093Z,60.77
2019-03-23T19:11:30.231Z,61.28
2019-03-23T19:14:02.499Z,61.57
2019-03-23T19:16:34.741Z,61.76
2019-03-23T19:19:09.651Z,61.63
2019-03-23T19:21:42.688Z,61.54
2019-03-23T19:24:15.486Z,61.73
2019-03-23T19:26:48.268Z,61.80
2019-03-23T19:29:21.198Z,61.50
2019-03-23T19:31:54.891Z,61.49
2019-03-23T19:34:27.480Z,61.46
2019-03-23T19:37:00.279Z,61.54
2019-03-23T19:39:32.517Z,61.65
2019-03-23T19:42:05.464Z,61.57
2019-03-23T19:44:38.409Z,61.52
2019-03-23T19:47:11.142Z,61.81
2019-03-23T19:49:44.169Z,61.72
2019-03-23T19:52:16.346Z,61.74
2019-03-23T19:54:48.586Z,61.76
2019-03-23T19:57:20.744Z,61.69
2019-03-23T19:59:52.911Z,61.32
2019-03-23T20:02:25.059Z,61.67
2019-03-23T20:04:57.232Z,61.52
2019-03-23T20:07:33.299Z,62.23
2019-03-23T20:10:03.419Z,62.53
2019-03-23T20:12:35.671Z,62.68
2019-03-23T20:15:08.096Z,62.95
2019-03-23T20:17:40.463Z,63.57
2019-03-23T20:20:13.115Z,63.63
2019-03-23T20:22:45.274Z,63.67
2019-03-23T20:25:17.502Z,63.45
2019-03-23T20:27:49.765Z,63.00
2019-03-23T20:30:22.007Z,63.11
2019-03-23T20:32:54.239Z,63.18
2019-03-23T20:35:26.469Z,63.46
2019-03-23T20:37:58.706Z,63.76
2019-03-23T20:40:30.949Z,63.86
2019-03-23T20:43:03.186Z,64.59
2019-03-23T20:45:35.394Z,64.60
2019-03-23T20:48:07.611Z,64.96
2019-03-23T20:50:40.232Z,64.81
2019-03-23T20:53:13.991Z,64.73
2019-03-23T20:55:46.283Z,64.70
2019-03-23T20:58:18.622Z,64.60
2019-03-23T21:00:50.881Z,64.78
2019-03-23T21:03:23.103Z,64.23
2019-03-23T21:05:55.324Z,64.60
2019-03-23T21:08:27.537Z,64.66
2019-03-23T21:10:59.703Z,64.99
2019-03-23T21:13:31.849Z,65.02
2019-03-23T21:16:04.029Z,64.93
2019-03-23T21:18:36.250Z,64.88
2019-03-23T21:21:09.685Z,65.02
2019-03-23T21:23:43.669Z,65.02
2019-03-23T21:26:16.124Z,64.18
2019-03-23T21:28:49.092Z,64.42
2019-03-23T21:31:21.727Z,64.45
2019-03-23T21:33:53.984Z,64.00
2019-03-23T21:36:26.717Z,64.05
2019-03-23T21:38:59.029Z,64.21
2019-03-23T21:41:31.160Z,63.75
2019-03-23T21:44:05.224Z,63.95
2019-03-23T21:46:37.824Z,63.49
2019-03-23T21:49:10.634Z,63.20
2019-03-23T21:51:43.455Z,63.67
2019-03-23T21:54:18.623Z,64.01
2019-03-23T21:56:51.545Z,63.55
2019-03-23T21:59:25.481Z,63.47
2019-03-23T22:01:57.874Z,63.44
2019-03-23T22:04:31.073Z,63.98
2019-03-23T22:07:03.331Z,63.82
2019-03-23T22:09:35.663Z,63.90
2019-03-23T22:12:09.045Z,63.82
2019-03-23T22:14:42.141Z,64.15
2019-03-23T22:17:14.583Z,64.50
2019-03-23T22:19:46.984Z,64.54
2019-03-23T22:22:19.120Z,64.42
2019-03-23T22:24:51.263Z,64.69
2019-03-23T22:27:23.407Z,64.54
2019-03-23T22:29:55.698Z,64.56
2019-03-23T22:32:27.907Z,64.89
2019-03-23T22:35:00.356Z,64.85
2019-03-23T22:37:32.660Z,64.97
2019-03-23T22:40:05.147Z,64.83
2019-03-23T22:42:37.381Z,64.76
2019-03-23T22:45:09.652Z,64.95
2019-03-23T22:47:41.869Z,65.36
2019-03-23T22:50:14.208Z,65.43
2019-03-23T22:52:46.413Z,65.74
2019-03-23T22:55:18.556Z,66.13
2019-03-23T22:57:50.693Z,66.33
2019-03-23T23:00:33.466Z,66.62
2019-03-23T23:03:07.218Z,66.56
2019-03-23T23:05:39.439Z,66.26
2019-03-23T23:08:11.668Z,65.68
2019-03-23T23:10:44.772Z,65.86
2019-03-23T23:13:17.176Z,65.48
2019-03-23T23:15:49.360Z,65.23
2019-03-23T23:18:21.563Z,65.26
2019-03-23T23:20:53.707Z,65.07
2019-03-23T23:23:25.930Z,64.91
2019-03-23T23:25:59.289Z,64.71
2019-03-23T23:28:31.497Z,65.14
2019-03-23T23:31:03.728Z,65.09
2019-03-23T23:33:35.944Z,65.27
2019-03-23T23:36:08.159Z,65.73
2019-03-23T23:38:40.471Z,65.65
2019-03-23T23:41:12.692Z,66.15
2019-03-23T23:43:44.889Z,66.37
2019-03-23T23:46:17.120Z,66.71
2019-03-23T23:48:51.460Z,66.36
2019-03-23T23:51:23.194Z,66.43
2019-03-23T23:53:55.441Z,66.25
2019-03-23T23:56:27.609Z,66.25
2019-03-23T23:58:59.960Z,66.45
